createdAt,value
2019-06-26T00:01:11.781Z,24.10
2019-06-26T00:04:17.036Z,23.90
2019-06-26T00:07:21.976Z,23.90
2019-06-26T00:10:27.075Z,23.90
2019-06-26T00:13:32.184Z,23.90
2019-06-26T00:16:37.397Z,23.90
2019-06-26T00:19:42.349Z,23.90
2019-06-26T00:22:47.266Z,23.90
2019-06-26T00:25:52.133Z,23.90
2019-06-26T00:28:57.026Z,23.90
2019-06-26T00:32:02.029Z,23.90
2019-06-26T00:35:07.001Z,23.90
2019-06-26T00:38:11.865Z,23.90
2019-06-26T00:41:16.786Z,23.80
2019-06-26T00:44:21.879Z,23.90
2019-06-26T00:47:26.900Z,23.80
2019-06-26T00:50:31.930Z,23.80
2019-06-26T00:53:37.037Z,23.80
2019-06-26T00:56:42.003Z,23.80
2019-06-26T00:59:47.101Z,23.80
2019-06-26T01:02:52.169Z,23.70
2019-06-26T01:05:57.409Z,23.70
2019-06-26T01:09:02.347Z,23.70
2019-06-26T01:12:07.478Z,23.60
2019-06-26T01:15:12.826Z,23.60
2019-06-26T01:18:17.686Z,23.50
2019-06-26T01:21:22.782Z,23.50
2019-06-26T01:24:28.085Z,23.50
2019-06-26T01:27:33.079Z,23.50
2019-06-26T01:30:38.127Z,23.50
2019-06-26T01:33:43.249Z,23.40
2019-06-26T01:36:48.434Z,23.40
2019-06-26T01:39:53.542Z,23.40
2019-06-26T01:42:58.533Z,23.30
2019-06-26T01:46:03.635Z,23.30
2019-06-26T01:49:08.651Z,23.30
2019-06-26T01:52:13.624Z,23.30
2019-06-26T01:55:18.697Z,23.20
2019-06-26T01:58:23.665Z,23.30
2019-06-26T02:01:28.444Z,23.20
2019-06-26T02:04:33.125Z,23.20
2019-06-26T02:07:38.092Z,23.20
2019-06-26T02:10:42.801Z,23.10
2019-06-26T02:13:47.886Z,23.10
2019-06-26T02:16:52.684Z,23.10
2019-06-26T02:19:57.747Z,23.10
2019-06-26T02:23:02.769Z,23.10
2019-06-26T02:26:07.816Z,23.10
2019-06-26T02:29:12.735Z,23.10
2019-06-26T02:32:17.951Z,23.10
2019-06-26T02:35:22.946Z,23.10
2019-06-26T02:38:27.910Z,23.00
2019-06-26T02:41:32.913Z,23.00
2019-06-26T02:44:52.457Z,23.00
2019-06-26T02:47:44.614Z,22.90
2019-06-26T02:50:49.472Z,22.90
2019-06-26T02:53:54.391Z,22.90
2019-06-26T02:56:59.358Z,22.90
2019-06-26T03:00:04.919Z,22.90
2019-06-26T03:03:10.122Z,22.90
2019-06-26T03:06:15.054Z,22.90
2019-06-26T03:09:19.926Z,22.80
2019-06-26T03:12:24.881Z,22.80
2019-06-26T03:15:30.065Z,22.70
2019-06-26T03:18:35.024Z,22.70
2019-06-26T03:21:40.122Z,22.70
2019-06-26T03:24:45.103Z,22.70
2019-06-26T03:27:49.917Z,22.70
2019-06-26T03:30:54.878Z,22.70
2019-06-26T03:33:59.553Z,22.70
2019-06-26T03:37:04.836Z,22.60
2019-06-26T03:40:10.376Z,22.70
2019-06-26T03:43:15.345Z,22.70
2019-06-26T03:46:20.263Z,22.70
2019-06-26T03:49:25.243Z,22.60
2019-06-26T03:52:30.555Z,22.60
2019-06-26T03:55:35.597Z,22.70
2019-06-26T03:58:40.508Z,22.70
2019-06-26T04:01:45.457Z,22.70
2019-06-26T04:04:50.601Z,22.70
2019-06-26T04:07:55.562Z,22.60
2019-06-26T04:11:00.665Z,22.70
2019-06-26T04:14:05.769Z,22.70
2019-06-26T04:17:10.665Z,22.80
2019-06-26T04:20:15.641Z,22.80
2019-06-26T04:23:20.940Z,22.90
2019-06-26T04:26:25.922Z,23.00
2019-06-26T04:29:30.900Z,23.10
2019-06-26T04:32:36.290Z,23.10
2019-06-26T04:35:41.491Z,23.10
2019-06-26T04:38:46.380Z,23.20
2019-06-26T04:41:51.376Z,23.20
2019-06-26T04:44:56.513Z,23.40
2019-06-26T04:48:01.470Z,23.50
2019-06-26T04:51:06.592Z,23.60
2019-06-26T04:54:11.707Z,23.70
2019-06-26T04:57:16.685Z,23.90
2019-06-26T05:00:22.060Z,24.00
2019-06-26T05:03:27.192Z,24.10
2019-06-26T05:06:32.322Z,24.20
2019-06-26T05:09:37.400Z,24.30
2019-06-26T05:12:42.295Z,24.30
2019-06-26T05:15:47.530Z,24.40
2019-06-26T05:18:52.471Z,24.50
2019-06-26T05:21:57.744Z,24.60
2019-06-26T05:25:02.725Z,24.70
2019-06-26T05:28:08.588Z,24.80
2019-06-26T05:31:13.722Z,24.80
2019-06-26T05:34:18.723Z,24.90
2019-06-26T05:37:23.802Z,25.10
2019-06-26T05:40:28.842Z,25.30
2019-06-26T05:43:33.701Z,25.30
2019-06-26T05:46:38.671Z,25.50
2019-06-26T05:49:43.700Z,25.50
2019-06-26T05:52:48.837Z,25.70
2019-06-26T05:55:54.156Z,25.80
2019-06-26T05:58:59.080Z,25.90
2019-06-26T06:02:04.042Z,26.00
2019-06-26T06:05:09.089Z,26.10
2019-06-26T06:08:14.122Z,26.30
2019-06-26T06:11:18.989Z,26.40
2019-06-26T06:14:23.898Z,26.50
2019-06-26T06:17:28.959Z,26.70
2019-06-26T06:20:38.350Z,27.00
2019-06-26T06:23:43.921Z,27.40
2019-06-26T06:26:48.857Z,27.70
2019-06-26T06:29:53.706Z,28.10
2019-06-26T06:32:58.632Z,28.60
2019-06-26T06:36:03.705Z,29.10
2019-06-26T06:39:08.793Z,29.80
2019-06-26T06:42:13.776Z,30.50
2019-06-26T06:45:18.781Z,31.10
2019-06-26T06:48:23.841Z,31.80
2019-06-26T06:51:28.962Z,32.30
2019-06-26T06:54:33.934Z,33.00
2019-06-26T06:57:38.975Z,33.70
2019-06-26T07:00:44.247Z,34.30
2019-06-26T07:03:49.113Z,34.70
2019-06-26T07:06:54.170Z,35.60
2019-06-26T07:09:59.288Z,36.10
2019-06-26T07:13:04.272Z,36.50
2019-06-26T07:16:09.103Z,37.20
2019-06-26T07:19:14.021Z,37.80
2019-06-26T07:22:19.048Z,38.30
2019-06-26T07:25:24.193Z,38.60
2019-06-26T07:28:28.881Z,39.10
2019-06-26T07:31:33.597Z,39.60
2019-06-26T07:34:38.330Z,40.00
2019-06-26T07:37:43.030Z,40.50
2019-06-26T07:40:47.721Z,40.80
2019-06-26T07:43:52.439Z,40.40
2019-06-26T07:46:57.153Z,39.40
2019-06-26T07:50:02.010Z,38.60
2019-06-26T07:53:06.757Z,38.10
2019-06-26T07:56:11.578Z,37.20
2019-06-26T07:59:16.289Z,36.70
2019-06-26T08:02:21.096Z,36.30
2019-06-26T08:05:25.841Z,35.70
2019-06-26T08:08:30.621Z,35.30
2019-06-26T08:11:35.286Z,35.10
2019-06-26T08:14:40.010Z,34.60
2019-06-26T08:17:59.229Z,34.10
2019-06-26T08:21:07.464Z,33.70
2019-06-26T08:23:58.199Z,33.50
2019-06-26T08:27:02.975Z,33.50
2019-06-26T08:30:08.133Z,33.40
2019-06-26T08:33:12.914Z,33.30
2019-06-26T08:36:17.746Z,32.70
2019-06-26T08:39:22.423Z,32.30
2019-06-26T08:42:27.153Z,32.30
2019-06-26T08:45:31.955Z,32.30
2019-06-26T08:48:39.927Z,32.40
2019-06-26T08:51:43.238Z,32.50
2019-06-26T08:54:48.279Z,32.50
2019-06-26T08:57:53.276Z,32.30
2019-06-26T09:00:58.565Z,32.40
2019-06-26T09:04:03.614Z,32.30
2019-06-26T09:07:08.817Z,32.20
2019-06-26T09:10:16.784Z,32.20
2019-06-26T09:13:21.493Z,32.50
2019-06-26T09:16:26.595Z,32.60
2019-06-26T09:19:31.533Z,32.70
2019-06-26T09:22:36.638Z,32.80
2019-06-26T09:25:41.653Z,32.90
2019-06-26T09:28:46.510Z,32.70
2019-06-26T09:31:51.730Z,32.70
2019-06-26T09:34:56.595Z,32.90
2019-06-26T09:38:01.794Z,33.00
2019-06-26T09:41:06.944Z,33.00
2019-06-26T09:44:11.969Z,33.00
2019-06-26T09:47:16.986Z,33.00
2019-06-26T09:50:22.482Z,33.00
2019-06-26T09:53:27.553Z,32.80
2019-06-26T09:56:32.442Z,33.00
2019-06-26T09:59:37.506Z,33.00
2019-06-26T10:02:42.565Z,33.10
2019-06-26T10:05:47.617Z,33.10
2019-06-26T10:08:54.255Z,33.00
2019-06-26T10:11:59.643Z,33.10
2019-06-26T10:15:05.029Z,33.00
2019-06-26T10:18:10.076Z,33.00
2019-06-26T10:21:15.024Z,33.20
2019-06-26T10:24:20.177Z,33.20
2019-06-26T10:27:25.555Z,33.40
2019-06-26T10:30:30.638Z,33.40
2019-06-26T10:33:35.626Z,33.40
2019-06-26T10:36:40.677Z,33.40
2019-06-26T10:39:45.692Z,33.10
2019-06-26T10:42:50.969Z,33.10
2019-06-26T10:45:56.079Z,33.20
2019-06-26T10:49:01.078Z,33.20
2019-06-26T10:52:06.064Z,33.30
2019-06-26T10:55:11.564Z,33.50
2019-06-26T10:58:16.617Z,33.50
2019-06-26T11:01:22.283Z,33.50
2019-06-26T11:04:27.518Z,33.50
2019-06-26T11:07:36.257Z,33.70
2019-06-26T11:10:39.355Z,33.70
2019-06-26T11:13:44.439Z,33.80
2019-06-26T11:16:49.649Z,33.70
2019-06-26T11:19:55.708Z,33.70
2019-06-26T11:23:00.854Z,33.40
2019-06-26T11:26:05.893Z,33.10
2019-06-26T11:29:10.992Z,33.30
2019-06-26T11:32:15.982Z,33.40
2019-06-26T11:35:21.008Z,33.40
2019-06-26T11:38:25.890Z,33.40
2019-06-26T11:41:31.077Z,33.50
2019-06-26T11:44:36.215Z,33.60
2019-06-26T11:47:45.374Z,33.70
2019-06-26T11:50:48.397Z,33.70
2019-06-26T11:53:53.689Z,33.80
2019-06-26T11:56:58.726Z,33.80
2019-06-26T12:00:04.147Z,33.90
2019-06-26T12:03:13.009Z,33.90
2019-06-26T12:06:19.228Z,34.00
2019-06-26T12:09:22.863Z,33.90
2019-06-26T12:12:28.187Z,33.90
2019-06-26T12:15:33.111Z,34.00
2019-06-26T12:18:38.122Z,33.90
2019-06-26T12:21:43.235Z,33.80
2019-06-26T12:24:48.169Z,33.80
2019-06-26T12:27:53.574Z,33.90
2019-06-26T12:30:59.093Z,33.90
2019-06-26T12:34:04.049Z,34.00
2019-06-26T12:37:10.098Z,33.90
2019-06-26T12:40:16.310Z,34.00
2019-06-26T12:43:21.167Z,33.90
2019-06-26T12:46:26.223Z,33.70
2019-06-26T12:49:31.242Z,33.70
2019-06-26T12:52:36.175Z,33.80
2019-06-26T12:55:41.230Z,33.80
2019-06-26T12:58:49.191Z,33.90
2019-06-26T13:01:54.297Z,33.80
2019-06-26T13:04:59.421Z,33.60
2019-06-26T13:08:04.445Z,33.60
2019-06-26T13:11:09.423Z,33.70
2019-06-26T13:14:14.480Z,33.70
2019-06-26T13:17:19.518Z,33.80
2019-06-26T13:20:24.570Z,33.70
2019-06-26T13:23:29.565Z,33.70
2019-06-26T13:26:34.719Z,33.70
2019-06-26T13:29:39.814Z,33.70
2019-06-26T13:32:44.997Z,33.70
2019-06-26T13:35:50.288Z,33.70
2019-06-26T13:38:55.251Z,33.70
2019-06-26T13:42:00.278Z,33.50
2019-06-26T13:45:05.290Z,33.40
2019-06-26T13:48:10.241Z,33.20
2019-06-26T13:51:15.350Z,33.20
2019-06-26T13:54:20.366Z,33.10
2019-06-26T13:57:25.499Z,33.20
2019-06-26T14:00:30.549Z,33.20
2019-06-26T14:03:35.512Z,33.20
2019-06-26T14:06:40.677Z,33.30
2019-06-26T14:09:45.676Z,33.40
2019-06-26T14:12:50.517Z,33.40
2019-06-26T14:15:55.607Z,33.40
2019-06-26T14:19:00.629Z,33.40
2019-06-26T14:22:12.173Z,33.50
2019-06-26T14:25:16.123Z,33.50
2019-06-26T14:28:21.228Z,33.50
2019-06-26T14:31:26.256Z,33.30
2019-06-26T14:34:31.407Z,33.40
2019-06-26T14:37:36.846Z,33.50
2019-06-26T14:40:44.516Z,33.50
2019-06-26T14:43:52.729Z,33.40
2019-06-26T14:46:59.522Z,33.20
2019-06-26T14:50:04.658Z,33.20
2019-06-26T14:53:09.831Z,33.20
2019-06-26T14:56:14.797Z,33.30
2019-06-26T14:59:21.005Z,33.40
2019-06-26T15:02:26.272Z,33.50
2019-06-26T15:05:31.319Z,33.70
2019-06-26T15:08:36.795Z,33.60
2019-06-26T15:11:41.839Z,33.70
2019-06-26T15:14:46.960Z,33.70
2019-06-26T15:17:52.026Z,33.70
2019-06-26T15:20:57.231Z,33.70
2019-06-26T15:24:02.295Z,33.70
2019-06-26T15:27:08.712Z,33.80
2019-06-26T15:30:13.962Z,33.80
2019-06-26T15:33:19.053Z,33.80
2019-06-26T15:36:24.342Z,33.90
2019-06-26T15:39:30.709Z,34.00
2019-06-26T15:42:35.689Z,34.10
2019-06-26T15:45:41.196Z,34.10
2019-06-26T15:48:49.423Z,33.90
2019-06-26T15:51:52.961Z,33.70
2019-06-26T15:54:57.968Z,33.70
2019-06-26T15:58:03.250Z,33.60
2019-06-26T16:01:09.119Z,33.70
2019-06-26T16:04:14.169Z,33.80
2019-06-26T16:07:19.283Z,33.90
2019-06-26T16:10:24.361Z,33.80
2019-06-26T16:13:30.098Z,33.70
2019-06-26T16:16:36.927Z,33.50
2019-06-26T16:19:41.837Z,33.50
2019-06-26T16:22:46.954Z,33.60
2019-06-26T16:25:52.046Z,33.60
2019-06-26T16:28:57.778Z,33.50
2019-06-26T16:32:02.624Z,33.50
2019-06-26T16:35:12.095Z,33.50
2019-06-26T16:38:15.865Z,33.50
2019-06-26T16:41:20.960Z,33.50
2019-06-26T16:44:25.959Z,33.50
2019-06-26T16:47:31.335Z,33.50
2019-06-26T16:50:36.320Z,33.50
2019-06-26T16:53:41.348Z,33.40
2019-06-26T16:56:46.431Z,33.40
2019-06-26T17:00:05.035Z,33.30
2019-06-26T17:02:58.438Z,33.20
2019-06-26T17:06:03.526Z,33.10
2019-06-26T17:09:09.487Z,33.10
2019-06-26T17:12:14.751Z,33.10
2019-06-26T17:15:19.962Z,33.00
2019-06-26T17:18:25.186Z,33.00
2019-06-26T17:21:30.236Z,32.80
2019-06-26T17:24:35.437Z,32.80
2019-06-26T17:27:40.557Z,32.70
2019-06-26T17:30:45.764Z,32.60
2019-06-26T17:33:50.831Z,32.50
2019-06-26T17:36:56.771Z,32.40
2019-06-26T17:40:01.738Z,32.40
2019-06-26T17:43:12.179Z,32.30
2019-06-26T17:46:13.853Z,32.20
2019-06-26T17:49:19.419Z,32.10
2019-06-26T17:52:24.382Z,32.00
2019-06-26T17:55:29.654Z,31.90
2019-06-26T17:58:34.460Z,31.80
2019-06-26T18:01:39.244Z,31.60
2019-06-26T18:04:44.046Z,31.50
2019-06-26T18:07:48.894Z,31.40
2019-06-26T18:10:53.686Z,31.30
2019-06-26T18:13:58.430Z,31.30
2019-06-26T18:17:03.577Z,31.20
2019-06-26T18:20:09.016Z,31.20
2019-06-26T18:23:14.068Z,31.10
2019-06-26T18:26:19.167Z,31.10
2019-06-26T18:29:24.225Z,31.00
2019-06-26T18:32:29.265Z,31.00
2019-06-26T18:35:34.309Z,30.90
2019-06-26T18:38:39.390Z,30.80
2019-06-26T18:41:44.265Z,30.70
2019-06-26T18:44:49.500Z,30.60
2019-06-26T18:47:54.641Z,30.60
2019-06-26T18:50:59.590Z,30.50
2019-06-26T18:54:05.561Z,30.50
2019-06-26T18:57:10.415Z,30.40
2019-06-26T19:00:16.373Z,30.30
2019-06-26T19:03:21.586Z,30.30
2019-06-26T19:06:26.559Z,30.30
2019-06-26T19:09:31.640Z,30.20
2019-06-26T19:12:36.578Z,30.10
2019-06-26T19:15:41.526Z,30.10
2019-06-26T19:18:46.624Z,30.00
2019-06-26T19:21:51.757Z,30.00
2019-06-26T19:24:57.397Z,29.90
2019-06-26T19:28:02.489Z,29.80
2019-06-26T19:31:07.644Z,29.80
2019-06-26T19:34:12.897Z,29.70
2019-06-26T19:37:18.147Z,29.60
2019-06-26T19:40:24.279Z,29.50
2019-06-26T19:43:29.627Z,29.40
2019-06-26T19:46:34.780Z,29.40
2019-06-26T19:49:40.284Z,29.30
2019-06-26T19:52:45.851Z,29.30
2019-06-26T19:55:50.828Z,29.20
2019-06-26T19:58:56.514Z,29.10
2019-06-26T20:02:01.720Z,29.10
2019-06-26T20:05:06.948Z,29.00
2019-06-26T20:08:12.067Z,29.00
2019-06-26T20:11:17.046Z,29.00
2019-06-26T20:14:23.189Z,28.90
2019-06-26T20:17:28.363Z,28.80
2019-06-26T20:20:33.476Z,28.70
2019-06-26T20:23:38.730Z,28.60
2019-06-26T20:26:43.657Z,28.60
2019-06-26T20:29:48.778Z,28.50
2019-06-26T20:32:53.757Z,28.40
2019-06-26T20:35:58.800Z,28.40
2019-06-26T20:39:04.864Z,28.40
2019-06-26T20:42:09.736Z,28.30
2019-06-26T20:45:15.485Z,28.30
2019-06-26T20:48:20.469Z,28.20
2019-06-26T20:51:25.451Z,28.20
2019-06-26T20:54:30.495Z,28.10
2019-06-26T20:57:35.546Z,28.00
2019-06-26T21:00:40.636Z,27.90
2019-06-26T21:03:45.638Z,27.90
2019-06-26T21:06:50.663Z,27.80
2019-06-26T21:09:55.710Z,27.80
2019-06-26T21:13:00.694Z,27.70
2019-06-26T21:16:05.731Z,27.60
2019-06-26T21:19:10.683Z,27.50
2019-06-26T21:22:15.839Z,27.50
2019-06-26T21:25:20.868Z,27.40
2019-06-26T21:28:26.083Z,27.50
2019-06-26T21:31:31.405Z,27.40
2019-06-26T21:34:36.442Z,27.20
2019-06-26T21:37:41.707Z,27.10
2019-06-26T21:40:47.100Z,27.10
2019-06-26T21:43:51.993Z,27.10
2019-06-26T21:46:57.169Z,27.00
2019-06-26T21:50:02.496Z,27.00
2019-06-26T21:53:07.488Z,26.90
2019-06-26T21:56:12.612Z,26.90
2019-06-26T21:59:17.407Z,26.90
2019-06-26T22:02:22.444Z,26.80
2019-06-26T22:05:27.681Z,26.80
2019-06-26T22:08:32.815Z,26.70
2019-06-26T22:11:38.059Z,26.70
2019-06-26T22:14:42.992Z,26.60
2019-06-26T22:17:48.153Z,26.60
2019-06-26T22:20:53.107Z,26.60
2019-06-26T22:23:58.232Z,26.40
2019-06-26T22:27:03.086Z,26.40
2019-06-26T22:30:08.917Z,26.40
2019-06-26T22:33:13.966Z,26.30
2019-06-26T22:36:19.207Z,26.30
2019-06-26T22:39:24.145Z,26.30
2019-06-26T22:42:29.401Z,26.30
2019-06-26T22:45:34.251Z,26.30
2019-06-26T22:48:39.291Z,26.20
2019-06-26T22:51:44.370Z,26.20
2019-06-26T22:54:49.331Z,26.10
2019-06-26T22:57:54.455Z,26.10
2019-06-26T23:00:59.594Z,26.10
2019-06-26T23:04:04.537Z,26.00
2019-06-26T23:07:09.448Z,26.00
2019-06-26T23:10:14.924Z,25.90
2019-06-26T23:13:20.081Z,25.90
2019-06-26T23:16:25.050Z,25.90
2019-06-26T23:19:30.104Z,25.80
2019-06-26T23:22:35.270Z,25.80
2019-06-26T23:25:40.365Z,25.80
2019-06-26T23:28:45.283Z,25.70
2019-06-26T23:31:50.361Z,25.70
2019-06-26T23:34:55.367Z,25.80
2019-06-26T23:38:00.535Z,25.70
2019-06-26T23:41:05.553Z,25.80
2019-06-26T23:44:10.787Z,25.70
2019-06-26T23:47:15.803Z,25.70
2019-06-26T23:50:21.066Z,25.70
2019-06-26T23:53:26.017Z,25.70
2019-06-26T23:56:39.975Z,25.60
2019-06-26T23:59:37.520Z,25.60
